Time;durP1;ratioP1;P1;durP2;ratioP2;P2;SDS_P1;SDS_P2;PMS_P1;PMS_P2;Temp;Humidity;BMP_temperature;BMP_pressure;BME280_temperature;BME280_humidity;BME280_pressure;Samples;Min_cycle;Max_cycle;Signal;HPM_P1;HPM_P2
2023/04/30 00:01:25;;;;;;;;;;;;;;;9.77;100.00;96104.94;5061894;28;19963;-71
2023/04/30 00:03:52;;;;;;;;;;;;;;;9.94;100.00;96099.69;5081367;28;19981;-71
2023/04/30 00:06:18;;;;;;;;;;;;;;;9.97;100.00;96103.81;5074240;28;19936;-73
2023/04/30 00:08:44;;;;;;;;;;;;;;;9.90;100.00;96099.91;5068448;28;19925;-74
2023/04/30 00:11:10;;;;;;;;;;;;;;;9.93;100.00;96097.16;5070575;28;19928;-73
2023/04/30 00:13:38;;;;;;;;;;;;;;;9.91;100.00;96096.41;5084020;28;20060;-74
2023/04/30 00:16:05;;;;;;;;;;;;;;;9.87;100.00;96102.69;5078600;28;19928;-73
2023/04/30 00:18:31;;;;;;;;;;;;;;;9.78;100.00;96104.00;5075929;28;20027;-71
2023/04/30 00:20:57;;;;;;;;;;;;;;;9.71;100.00;96097.50;5074164;28;20169;-71
2023/04/30 00:23:23;;;;;;;;;;;;;;;9.72;100.00;96101.75;5079653;28;19929;-71
2023/04/30 00:25:50;;;;;;;;;;;;;;;9.81;100.00;96096.06;5076419;28;19982;-73
2023/04/30 00:28:16;;;;;;;;;;;;;;;9.80;100.00;96101.34;5072976;28;19940;-73
2023/04/30 00:30:44;;;;;;;;;;;;;;;9.77;100.00;96102.34;5064998;28;19929;-71
2023/04/30 00:33:11;;;;;;;;;;;;;;;9.82;100.00;96107.25;5085069;28;19924;-71
2023/04/30 00:35:37;;;;;;;;;;;;;;;9.72;100.00;96109.53;5072728;28;19932;-74
2023/04/30 00:38:03;;;;;;;;;;;;;;;9.77;100.00;96111.84;5075096;28;19928;-74
2023/04/30 00:40:30;;;;;;;;;;;;;;;9.70;100.00;96117.34;5079369;28;19925;-74
2023/04/30 00:42:56;;;;;;;;;;;;;;;9.75;100.00;96119.69;5087417;28;19928;-74
2023/04/30 00:45:22;;;;;;;;;;;;;;;9.77;100.00;96122.19;5078469;28;19928;-73
2023/04/30 00:47:50;;;;;;;;;;;;;;;9.60;100.00;96120.50;5083451;28;19932;-73
2023/04/30 00:50:16;;;;;;;;;;;;;;;9.55;100.00;96113.00;5085400;28;20026;-73
2023/04/30 00:52:43;;;;;;;;;;;;;;;9.62;100.00;96111.75;5084952;28;20430;-73
2023/04/30 00:55:10;;;;;;;;;;;;;;;9.62;100.00;96118.69;5086290;28;19924;-73
2023/04/30 00:57:37;;;;;;;;;;;;;;;9.58;100.00;96117.19;5083726;28;20383;-73
2023/04/30 01:00:05;;;;;;;;;;;;;;;9.54;100.00;96105.34;5086864;28;19925;-73
2023/04/30 01:02:31;;;;;;;;;;;;;;;9.58;100.00;96112.84;5083242;28;19977;-73
2023/04/30 01:04:59;;;;;;;;;;;;;;;9.62;100.00;96103.16;5087643;28;19928;-73
2023/04/30 01:07:27;;;;;;;;;;;;;;;9.67;100.00;96106.34;5082229;28;19928;-73
2023/04/30 01:09:53;;;;;;;;;;;;;;;9.75;100.00;96109.34;5079202;28;19924;-73
2023/04/30 01:12:23;;;;;;;;;;;;;;;9.73;100.00;96106.00;5078865;28;19970;-73
2023/04/30 01:14:57;;;;;;;;;;;;;;;9.69;100.00;96107.94;5078725;28;19929;-73
2023/04/30 01:17:28;;;;;;;;;;;;;;;9.79;100.00;96099.66;5076811;28;19936;-73
2023/04/30 01:19:55;;;;;;;;;;;;;;;9.96;100.00;96099.59;5073163;28;19974;-73
2023/04/30 01:22:30;;;;;;;;;;;;;;;9.79;100.00;96095.34;5085666;28;19928;-73
2023/04/30 01:25:06;;;;;;;;;;;;;;;9.81;100.00;96097.84;5079377;28;19970;-73
2023/04/30 01:27:41;;;;;;;;;;;;;;;9.85;100.00;96095.00;5079761;28;19932;-73
2023/04/30 01:30:10;;;;;;;;;;;;;;;9.65;100.00;96090.91;5079341;28;19932;-73
2023/04/30 01:32:36;;;;;;;;;;;;;;;9.60;100.00;96084.31;5084860;28;20455;-73
2023/04/30 01:35:02;;;;;;;;;;;;;;;9.68;100.00;96082.16;5073072;28;20290;-73
2023/04/30 01:37:31;;;;;;;;;;;;;;;9.79;100.00;96084.13;5076118;28;19924;-73
2023/04/30 01:40:07;;;;;;;;;;;;;;;9.74;100.00;96086.97;5082241;28;19924;-73
2023/04/30 01:42:37;;;;;;;;;;;;;;;9.75;100.00;96087.81;5085693;28;19974;-73
2023/04/30 01:45:12;;;;;;;;;;;;;;;9.72;100.00;96083.66;5082307;28;19928;-73
2023/04/30 01:47:45;;;;;;;;;;;;;;;9.68;100.00;96090.75;5069444;28;19925;-73
2023/04/30 01:50:16;;;;;;;;;;;;;;;9.56;100.00;96100.91;5063720;28;19928;-73
2023/04/30 01:52:46;;;;;;;;;;;;;;;9.52;100.00;96095.06;5082884;28;19924;-73
2023/04/30 01:55:14;;;;;;;;;;;;;;;9.48;100.00;96092.72;5079006;28;19935;-73
2023/04/30 01:57:42;;;;;;;;;;;;;;;9.43;100.00;96098.97;5073368;28;20027;-73
2023/04/30 02:00:10;;;;;;;;;;;;;;;9.65;100.00;96097.84;5074774;28;20406;-73
2023/04/30 02:02:37;;;;;;;;;;;;;;;9.82;100.00;96099.50;5070719;28;19928;-73
2023/04/30 02:05:05;;;;;;;;;;;;;;;9.83;100.00;96096.00;5086670;28;19989;-73
2023/04/30 02:07:37;;;;;;;;;;;;;;;9.80;100.00;96093.59;5073108;28;19924;-73
2023/04/30 02:10:04;;;;;;;;;;;;;;;9.53;100.00;96094.16;5081399;28;20019;-73
2023/04/30 02:12:30;;;;;;;;;;;;;;;9.42;100.00;96092.16;5078968;28;20333;-73
2023/04/30 02:14:57;;;;;;;;;;;;;;;9.42;100.00;96089.56;5072147;28;20346;-73
2023/04/30 02:17:23;;;;;;;;;;;;;;;9.26;100.00;96086.09;5077666;28;19946;-73
2023/04/30 02:19:49;;;;;;;;;;;;;;;9.26;100.00;96082.69;5081650;28;19978;-74
2023/04/30 02:22:17;;;;;;;;;;;;;;;9.26;100.00;96088.69;5080836;28;20313;-72
2023/04/30 02:24:43;;;;;;;;;;;;;;;9.16;100.00;96084.94;5077546;28;19928;-73
2023/04/30 02:27:09;;;;;;;;;;;;;;;9.17;100.00;96086.59;5081311;28;19924;-73
2023/04/30 02:29:36;;;;;;;;;;;;;;;9.27;100.00;96087.78;5073419;28;19974;-73
2023/04/30 02:32:02;;;;;;;;;;;;;;;9.27;100.00;96089.50;5079586;28;19982;-73
2023/04/30 02:34:28;;;;;;;;;;;;;;;9.31;100.00;96093.63;5078959;28;19932;-73
2023/04/30 02:36:54;;;;;;;;;;;;;;;9.23;100.00;96093.19;5078730;28;19924;-73
2023/04/30 02:39:22;;;;;;;;;;;;;;;9.49;100.00;96091.81;5087225;28;20275;-73
2023/04/30 02:41:48;;;;;;;;;;;;;;;9.31;100.00;96083.28;5087080;28;19927;-73
2023/04/30 02:44:15;;;;;;;;;;;;;;;9.27;100.00;96080.03;5079159;28;19924;-74
2023/04/30 02:46:41;;;;;;;;;;;;;;;9.10;100.00;96085.25;5081157;28;19925;-74
2023/04/30 02:49:07;;;;;;;;;;;;;;;9.08;100.00;96087.06;5074912;28;19933;-73
2023/04/30 02:51:33;;;;;;;;;;;;;;;9.05;100.00;96094.97;5079648;28;20386;-73
2023/04/30 02:54:00;;;;;;;;;;;;;;;9.03;100.00;96096.81;5080069;28;20451;-73
2023/04/30 02:56:28;;;;;;;;;;;;;;;9.12;100.00;96091.16;5081199;28;20374;-73
2023/04/30 02:58:54;;;;;;;;;;;;;;;9.12;100.00;96086.84;5078777;28;20014;-73
2023/04/30 03:01:21;;;;;;;;;;;;;;;9.05;100.00;96090.66;5075617;28;19924;-73
2023/04/30 03:03:47;;;;;;;;;;;;;;;9.07;100.00;96087.97;5084901;28;19982;-73
2023/04/30 03:06:13;;;;;;;;;;;;;;;9.07;100.00;96088.81;5083896;28;19924;-74
2023/04/30 03:08:39;;;;;;;;;;;;;;;9.08;100.00;96084.47;5081898;28;19950;-73
2023/04/30 03:11:06;;;;;;;;;;;;;;;9.01;100.00;96089.16;5082082;28;19931;-73
2023/04/30 03:13:33;;;;;;;;;;;;;;;9.10;100.00;96082.66;5083215;28;19973;-73
2023/04/30 03:16:00;;;;;;;;;;;;;;;8.96;100.00;96085.94;5082994;28;19928;-73
2023/04/30 03:18:26;;;;;;;;;;;;;;;8.82;100.00;96090.97;5078435;28;19932;-73
2023/04/30 03:20:52;;;;;;;;;;;;;;;8.70;100.00;96088.09;5082985;28;19929;-73
2023/04/30 03:23:19;;;;;;;;;;;;;;;8.62;100.00;96089.41;5081665;28;19924;-73
2023/04/30 03:25:45;;;;;;;;;;;;;;;8.66;100.00;96076.25;5085620;28;19924;-73
2023/04/30 03:28:11;;;;;;;;;;;;;;;8.82;100.00;96078.88;5078460;28;19928;-73
2023/04/30 03:30:39;;;;;;;;;;;;;;;8.84;100.00;96078.81;5082201;28;19978;-73
2023/04/30 03:33:05;;;;;;;;;;;;;;;8.75;100.00;96074.13;5085216;28;20367;-73
2023/04/30 03:35:32;;;;;;;;;;;;;;;8.63;100.00;96070.41;5082475;28;20023;-73
2023/04/30 03:37:58;;;;;;;;;;;;;;;8.51;100.00;96076.19;5088771;28;20385;-73
2023/04/30 03:40:25;;;;;;;;;;;;;;;8.57;100.00;96075.91;5083033;28;19924;-73
2023/04/30 03:42:51;;;;;;;;;;;;;;;8.46;100.00;96073.84;5088061;28;19924;-73
2023/04/30 03:45:17;;;;;;;;;;;;;;;8.34;100.00;96076.97;5085453;28;19932;-73
2023/04/30 03:47:45;;;;;;;;;;;;;;;8.40;100.00;96076.72;5073046;28;19929;-73
2023/04/30 03:50:12;;;;;;;;;;;;;;;8.46;100.00;96074.69;5083114;28;19935;-73
2023/04/30 03:52:38;;;;;;;;;;;;;;;8.41;100.00;96084.38;5079453;28;20011;-73
2023/04/30 03:55:05;;;;;;;;;;;;;;;8.29;100.00;96081.53;5075146;28;19970;-73
2023/04/30 03:57:31;;;;;;;;;;;;;;;8.31;100.00;96082.31;5086321;28;19924;-73
2023/04/30 03:59:57;;;;;;;;;;;;;;;8.25;100.00;96083.44;5080000;28;19971;-74
2023/04/30 04:02:24;;;;;;;;;;;;;;;8.31;100.00;96078.00;5068435;28;20349;-73
2023/04/30 04:04:52;;;;;;;;;;;;;;;8.35;100.00;96071.75;5067046;28;20053;-74
2023/04/30 04:07:18;;;;;;;;;;;;;;;8.24;100.00;96089.50;5076910;28;20009;-73
2023/04/30 04:09:44;;;;;;;;;;;;;;;8.33;100.00;96089.06;5071768;28;20015;-73
2023/04/30 04:12:11;;;;;;;;;;;;;;;8.48;100.00;96088.31;5081811;28;19925;-73
2023/04/30 04:14:37;;;;;;;;;;;;;;;8.47;100.00;96091.00;5073901;28;19935;-71
2023/04/30 04:17:04;;;;;;;;;;;;;;;8.57;100.00;96093.97;5078747;28;19982;-71
2023/04/30 04:19:30;;;;;;;;;;;;;;;8.59;100.00;96092.97;5078297;28;19935;-71
2023/04/30 04:21:58;;;;;;;;;;;;;;;8.65;100.00;96086.69;5076694;28;20391;-71
2023/04/30 04:24:24;;;;;;;;;;;;;;;8.73;100.00;96093.13;5081185;28;19948;-70
2023/04/30 04:26:51;;;;;;;;;;;;;;;8.59;100.00;96092.97;5087391;28;20517;-71
2023/04/30 04:29:17;;;;;;;;;;;;;;;8.75;100.00;96093.06;5073631;28;20402;-70
2023/04/30 04:31:43;;;;;;;;;;;;;;;8.70;100.00;96088.09;5080662;28;20279;-70
2023/04/30 04:34:09;;;;;;;;;;;;;;;8.91;100.00;96093.94;5082119;28;19975;-71
2023/04/30 04:36:36;;;;;;;;;;;;;;;8.68;100.00;96089.94;5076614;28;19929;-70
2023/04/30 04:39:03;;;;;;;;;;;;;;;8.45;100.00;96098.84;5076716;28;19928;-71
2023/04/30 04:41:31;;;;;;;;;;;;;;;8.40;100.00;96094.78;5074694;28;19952;-71
2023/04/30 04:43:57;;;;;;;;;;;;;;;8.32;100.00;96097.72;5077244;28;19931;-71
2023/04/30 04:46:24;;;;;;;;;;;;;;;8.48;100.00;96095.25;5088389;28;20381;-71
2023/04/30 04:48:50;;;;;;;;;;;;;;;8.26;100.00;96100.59;5084791;28;19928;-73
2023/04/30 04:51:17;;;;;;;;;;;;;;;8.10;100.00;96097.91;5076582;28;19928;-73
2023/04/30 04:53:43;;;;;;;;;;;;;;;8.09;100.00;96095.41;5079268;28;19924;-73
2023/04/30 04:56:11;;;;;;;;;;;;;;;8.02;100.00;96094.03;5075029;28;19928;-73
2023/04/30 04:58:38;;;;;;;;;;;;;;;7.98;100.00;96098.50;5085690;28;19924;-73
2023/04/30 05:01:04;;;;;;;;;;;;;;;7.98;100.00;96101.91;5080955;28;19925;-73
2023/04/30 05:03:31;;;;;;;;;;;;;;;8.02;100.00;96089.72;5075249;28;19925;-74
2023/04/30 05:05:57;;;;;;;;;;;;;;;8.28;100.00;96111.69;5079386;28;19929;-73
2023/04/30 05:08:23;;;;;;;;;;;;;;;8.35;100.00;96101.91;5070858;28;19925;-71
2023/04/30 05:10:50;;;;;;;;;;;;;;;8.40;100.00;96105.94;5076846;28;19928;-70
2023/04/30 05:13:18;;;;;;;;;;;;;;;8.43;100.00;96099.81;5076643;28;20019;-71
2023/04/30 05:15:44;;;;;;;;;;;;;;;8.47;100.00;96102.16;5082946;28;19924;-71
2023/04/30 05:18:10;;;;;;;;;;;;;;;8.69;100.00;96093.34;5075761;28;19932;-71
2023/04/30 05:20:36;;;;;;;;;;;;;;;8.88;100.00;96099.25;5080723;28;19933;-70
2023/04/30 05:23:03;;;;;;;;;;;;;;;8.90;100.00;96100.03;5074063;28;19936;-71
2023/04/30 05:25:29;;;;;;;;;;;;;;;8.99;100.00;96103.88;5084147;28;19930;-71
2023/04/30 05:27:56;;;;;;;;;;;;;;;9.23;100.00;96101.75;5081131;28;19951;-71
2023/04/30 05:30:23;;;;;;;;;;;;;;;9.34;100.00;96102.03;5079548;28;20015;-71
2023/04/30 05:32:51;;;;;;;;;;;;;;;9.33;100.00;96097.78;5090021;28;19936;-71
2023/04/30 05:35:17;;;;;;;;;;;;;;;9.58;100.00;96104.25;5081034;28;19929;-71
2023/04/30 05:37:43;;;;;;;;;;;;;;;9.66;100.00;96102.09;5071493;28;20449;-71
2023/04/30 05:40:11;;;;;;;;;;;;;;;9.60;100.00;96097.22;5075809;28;19986;-71
2023/04/30 05:42:39;;;;;;;;;;;;;;;9.71;100.00;96100.06;5081629;28;19928;-71
2023/04/30 05:45:06;;;;;;;;;;;;;;;9.90;100.00;96103.34;5077501;28;19993;-71
2023/04/30 05:47:34;;;;;;;;;;;;;;;10.02;100.00;96101.00;5083049;28;19978;-71
2023/04/30 05:50:00;;;;;;;;;;;;;;;9.91;100.00;96102.44;5078999;28;19929;-71
2023/04/30 05:52:26;;;;;;;;;;;;;;;10.18;100.00;96112.16;5086242;28;20336;-71
2023/04/30 05:54:52;;;;;;;;;;;;;;;9.94;100.00;96109.19;5070950;28;20064;-72
2023/04/30 05:57:19;;;;;;;;;;;;;;;10.27;100.00;96111.69;5074056;28;19924;-74
2023/04/30 05:59:45;;;;;;;;;;;;;;;10.29;100.00;96106.44;5080459;28;20337;-74
2023/04/30 06:02:11;;;;;;;;;;;;;;;10.45;100.00;96111.56;5080681;28;19955;-73
2023/04/30 06:04:39;;;;;;;;;;;;;;;10.52;100.00;96118.06;5079842;28;19978;-73
2023/04/30 06:07:05;;;;;;;;;;;;;;;10.86;100.00;96104.00;5082150;28;20320;-73
2023/04/30 06:09:31;;;;;;;;;;;;;;;10.81;100.00;96108.63;5076299;28;19935;-71
2023/04/30 06:11:58;;;;;;;;;;;;;;;10.88;100.00;96104.75;5086192;28;19978;-71
2023/04/30 06:14:24;;;;;;;;;;;;;;;10.81;100.00;96106.84;5086487;28;19931;-71
2023/04/30 06:16:50;;;;;;;;;;;;;;;11.06;100.00;96110.63;5080404;28;19934;-70
2023/04/30 06:19:17;;;;;;;;;;;;;;;11.01;100.00;96113.47;5082773;28;19935;-70
2023/04/30 06:21:44;;;;;;;;;;;;;;;10.91;100.00;96104.56;5086611;28;19924;-71
2023/04/30 06:24:11;;;;;;;;;;;;;;;10.84;100.00;96111.88;5082075;28;19985;-71
2023/04/30 06:26:37;;;;;;;;;;;;;;;10.55;100.00;96110.94;5079878;28;19936;-71
2023/04/30 06:29:03;;;;;;;;;;;;;;;10.67;100.00;96109.41;5085851;28;20001;-71
2023/04/30 06:31:30;;;;;;;;;;;;;;;10.78;100.00;96099.25;5077798;28;19928;-71
2023/04/30 06:33:56;;;;;;;;;;;;;;;10.76;100.00;96103.72;5077039;28;19928;-71
2023/04/30 06:36:22;;;;;;;;;;;;;;;10.45;100.00;96114.97;5082089;28;20451;-71
2023/04/30 06:38:50;;;;;;;;;;;;;;;10.47;100.00;96105.38;5077420;28;19925;-71
2023/04/30 06:41:16;;;;;;;;;;;;;;;10.41;100.00;96109.13;5080455;28;19924;-71
2023/04/30 06:43:43;;;;;;;;;;;;;;;10.54;100.00;96109.28;5078538;28;20410;-71
2023/04/30 06:46:09;;;;;;;;;;;;;;;10.64;100.00;96112.16;5080607;28;19931;-71
2023/04/30 06:48:35;;;;;;;;;;;;;;;10.75;100.00;96111.56;5071677;28;19924;-72
2023/04/30 06:51:01;;;;;;;;;;;;;;;10.97;100.00;96111.97;5076686;28;20439;-71
2023/04/30 06:53:28;;;;;;;;;;;;;;;10.99;100.00;96117.09;5078820;28;20332;-71
2023/04/30 06:55:55;;;;;;;;;;;;;;;10.78;100.00;96113.97;5078989;28;19925;-71
2023/04/30 06:58:22;;;;;;;;;;;;;;;10.92;100.00;96113.19;5085491;28;19935;-71
2023/04/30 07:00:48;;;;;;;;;;;;;;;11.03;100.00;96115.97;5078474;28;19939;-71
2023/04/30 07:03:14;;;;;;;;;;;;;;;10.78;100.00;96117.41;5077138;28;19935;-71
2023/04/30 07:05:41;;;;;;;;;;;;;;;10.89;100.00;96114.19;5076034;28;19928;-71
2023/04/30 07:08:07;;;;;;;;;;;;;;;11.03;100.00;96106.44;5079996;28;19966;-73
2023/04/30 07:10:34;;;;;;;;;;;;;;;11.27;100.00;96111.94;5083641;28;19982;-72
2023/04/30 07:13:01;;;;;;;;;;;;;;;11.41;100.00;96113.66;5077340;28;19928;-74
2023/04/30 07:15:28;;;;;;;;;;;;;;;11.58;100.00;96108.31;5071006;28;19930;-73
2023/04/30 07:17:54;;;;;;;;;;;;;;;11.77;100.00;96107.16;5071053;28;19977;-73
2023/04/30 07:20:20;;;;;;;;;;;;;;;11.66;100.00;96104.41;5077801;28;19928;-73
2023/04/30 07:22:47;;;;;;;;;;;;;;;11.90;100.00;96104.66;5086295;28;19954;-73
2023/04/30 07:25:13;;;;;;;;;;;;;;;11.96;100.00;96099.91;5081331;28;19924;-73
2023/04/30 07:27:40;;;;;;;;;;;;;;;11.82;100.00;96095.56;5079362;28;19931;-73
2023/04/30 07:30:09;;;;;;;;;;;;;;;11.94;100.00;96095.75;5075621;28;19969;-73
2023/04/30 07:32:36;;;;;;;;;;;;;;;11.91;100.00;96094.19;5083271;28;19924;-73
2023/04/30 07:35:02;;;;;;;;;;;;;;;12.02;100.00;96096.94;5082556;28;19935;-73
2023/04/30 07:37:28;;;;;;;;;;;;;;;11.91;100.00;96083.81;5085810;28;20392;-73
2023/04/30 07:39:55;;;;;;;;;;;;;;;12.14;100.00;96089.31;5085555;28;19924;-73
2023/04/30 07:42:22;;;;;;;;;;;;;;;12.29;100.00;96090.91;5081969;28;19928;-73
2023/04/30 07:44:48;;;;;;;;;;;;;;;12.09;100.00;96089.59;5083028;28;19924;-73
2023/04/30 07:47:17;;;;;;;;;;;;;;;11.98;100.00;96095.47;5073628;28;20031;-73
2023/04/30 07:49:43;;;;;;;;;;;;;;;12.19;100.00;96097.63;5075497;28;20460;-73
2023/04/30 07:52:11;;;;;;;;;;;;;;;12.24;100.00;96098.19;5085670;28;20444;-73
2023/04/30 07:54:38;;;;;;;;;;;;;;;12.22;100.00;96098.25;5080837;28;19928;-73
2023/04/30 07:57:05;;;;;;;;;;;;;;;12.18;100.00;96098.56;5085631;28;19925;-74
2023/04/30 07:59:31;;;;;;;;;;;;;;;11.79;100.00;96095.78;5083276;28;19936;-73
2023/04/30 08:01:57;;;;;;;;;;;;;;;11.91;100.00;96098.56;5081695;28;19924;-73
2023/04/30 08:04:25;;;;;;;;;;;;;;;11.89;100.00;96111.63;5077102;28;19970;-73
2023/04/30 08:06:51;;;;;;;;;;;;;;;12.01;100.00;96103.03;5076064;28;20325;-73
2023/04/30 08:09:18;;;;;;;;;;;;;;;12.02;100.00;96096.94;5087633;28;20348;-73
2023/04/30 08:11:44;;;;;;;;;;;;;;;11.99;100.00;96091.13;5081571;28;19970;-73
2023/04/30 08:14:10;;;;;;;;;;;;;;;12.08;100.00;96095.72;5083645;28;19928;-73
2023/04/30 08:16:37;;;;;;;;;;;;;;;12.29;100.00;96101.31;5078979;28;19933;-73
2023/04/30 08:19:03;;;;;;;;;;;;;;;12.21;100.00;96100.97;5081437;28;19932;-73
2023/04/30 08:21:32;;;;;;;;;;;;;;;12.29;100.00;96109.94;5081521;28;19925;-73
2023/04/30 08:23:58;;;;;;;;;;;;;;;12.09;100.00;96100.00;5069104;28;19928;-73
2023/04/30 08:26:25;;;;;;;;;;;;;;;12.42;100.00;96104.78;5083540;28;19924;-73
2023/04/30 08:28:52;;;;;;;;;;;;;;;12.42;100.00;96103.94;5075742;28;19929;-73
2023/04/30 08:31:18;;;;;;;;;;;;;;;12.66;100.00;96109.31;5085727;28;19929;-70
2023/04/30 08:33:44;;;;;;;;;;;;;;;12.78;100.00;96106.72;5083074;28;20448;-71
2023/04/30 08:36:10;;;;;;;;;;;;;;;12.91;100.00;96103.34;5086762;28;19928;-71
2023/04/30 08:38:38;;;;;;;;;;;;;;;12.68;100.00;96102.22;5084874;28;19932;-71
2023/04/30 08:41:08;;;;;;;;;;;;;;;12.70;100.00;96096.00;5087107;28;19947;-70
2023/04/30 08:43:35;;;;;;;;;;;;;;;12.65;100.00;96107.66;5082706;28;19924;-71
2023/04/30 08:46:01;;;;;;;;;;;;;;;12.75;100.00;96101.72;5084078;28;20075;-71
2023/04/30 08:48:28;;;;;;;;;;;;;;;12.75;100.00;96100.91;5082637;28;19924;-70
2023/04/30 08:50:54;;;;;;;;;;;;;;;12.68;100.00;96108.28;5077511;28;19978;-70
2023/04/30 08:53:21;;;;;;;;;;;;;;;12.65;100.00;96107.66;5084082;28;19935;-71
2023/04/30 08:55:49;;;;;;;;;;;;;;;12.57;100.00;96097.75;5078829;28;19928;-71
2023/04/30 08:58:15;;;;;;;;;;;;;;;12.68;100.00;96102.22;5082395;28;20010;-71
2023/04/30 09:00:41;;;;;;;;;;;;;;;12.74;100.00;96109.63;5081344;28;19932;-73
2023/04/30 09:03:08;;;;;;;;;;;;;;;12.76;100.00;96099.97;5086196;28;19925;-73
2023/04/30 09:05:34;;;;;;;;;;;;;;;12.75;100.00;96100.91;5084256;28;19931;-73
2023/04/30 09:08:00;;;;;;;;;;;;;;;12.62;100.00;96108.69;5080194;28;20406;-73
2023/04/30 09:10:27;;;;;;;;;;;;;;;12.49;100.00;96105.19;5089662;28;19928;-73
2023/04/30 09:13:01;;;;;;;;;;;;;;;12.59;100.00;96098.47;5081935;28;19932;-73
2023/04/30 09:15:27;;;;;;;;;;;;;;;12.47;100.00;96107.09;5084503;28;19928;-73
2023/04/30 09:18:05;;;;;;;;;;;;;;;12.36;100.00;96105.19;5088297;28;19927;-71
2023/04/30 09:20:31;;;;;;;;;;;;;;;12.41;100.00;96103.09;5089720;28;19942;-71
2023/04/30 09:23:05;;;;;;;;;;;;;;;12.49;100.00;96108.63;5080504;28;19931;-73
2023/04/30 09:25:38;;;;;;;;;;;;;;;12.12;100.00;96107.56;5085271;28;19928;-73
2023/04/30 09:28:10;;;;;;;;;;;;;;;12.25;100.00;96102.44;5081500;28;19936;-73
2023/04/30 09:30:36;;;;;;;;;;;;;;;12.41;100.00;96110.06;5085944;28;19981;-73
2023/04/30 09:33:03;;;;;;;;;;;;;;;12.65;100.00;96112.84;5083108;28;20015;-73
2023/04/30 09:35:30;;;;;;;;;;;;;;;12.66;100.00;96115.34;5086688;28;19924;-77
2023/04/30 09:37:56;;;;;;;;;;;;;;;12.74;100.00;96114.84;5076745;28;19932;-74
2023/04/30 09:40:32;;;;;;;;;;;;;;;12.37;100.00;96116.41;5073655;28;19978;-73
2023/04/30 09:42:58;;;;;;;;;;;;;;;12.44;100.00;96113.31;5072791;28;20468;-75
2023/04/30 09:45:26;;;;;;;;;;;;;;;12.48;100.00;96113.94;5080647;28;20003;-73
2023/04/30 09:47:52;;;;;;;;;;;;;;;12.28;100.00;96112.63;5083158;28;19928;-73
2023/04/30 09:50:18;;;;;;;;;;;;;;;12.35;100.00;96111.31;5085031;28;19977;-74
2023/04/30 09:52:48;;;;;;;;;;;;;;;12.62;100.00;96106.09;5081929;28;19981;-74
2023/04/30 09:55:14;;;;;;;;;;;;;;;12.68;100.00;96108.28;5083772;28;19928;-74
2023/04/30 09:57:41;;;;;;;;;;;;;;;12.79;100.00;96107.56;5074290;28;20005;-74
2023/04/30 10:00:09;;;;;;;;;;;;;;;12.71;100.00;96110.66;5087219;28;19974;-73
2023/04/30 10:02:36;;;;;;;;;;;;;;;12.62;100.00;96119.06;5086054;28;19924;-73
2023/04/30 10:05:04;;;;;;;;;;;;;;;12.76;100.00;96107.78;5077543;28;19924;-74
2023/04/30 10:07:31;;;;;;;;;;;;;;;12.69;100.00;96107.34;5070229;28;19977;-74
2023/04/30 10:09:59;;;;;;;;;;;;;;;12.72;100.00;96108.88;5081738;28;19986;-74
2023/04/30 10:12:27;;;;;;;;;;;;;;;12.83;100.00;96102.06;5082183;28;19981;-73
2023/04/30 10:14:55;;;;;;;;;;;;;;;12.88;100.00;96100.94;5076096;28;19928;-74
2023/04/30 10:17:24;;;;;;;;;;;;;;;12.86;100.00;96113.19;5072814;28;19978;-73
2023/04/30 10:19:54;;;;;;;;;;;;;;;13.07;100.00;96106.56;5081222;28;19925;-74
2023/04/30 10:22:21;;;;;;;;;;;;;;;13.21;100.00;96109.06;5080800;28;19951;-74
2023/04/30 10:24:48;;;;;;;;;;;;;;;13.20;100.00;96106.53;5080932;28;19933;-74
2023/04/30 10:27:14;;;;;;;;;;;;;;;13.38;100.00;96097.53;5078974;28;19924;-73
2023/04/30 10:29:41;;;;;;;;;;;;;;;13.41;100.00;96088.69;5069309;28;19924;-74
2023/04/30 10:32:08;;;;;;;;;;;;;;;13.39;95.93;96093.19;5076741;28;20455;-74
2023/04/30 10:34:40;;;;;;;;;;;;;;;13.66;100.00;96093.84;5084480;28;19928;-73
2023/04/30 10:37:13;;;;;;;;;;;;;;;13.63;95.22;96083.66;5078325;28;19928;-73
2023/04/30 10:39:39;;;;;;;;;;;;;;;13.75;93.69;96087.16;5075431;28;19925;-73
2023/04/30 10:42:06;;;;;;;;;;;;;;;13.91;89.64;96086.94;5078006;28;19928;-71
2023/04/30 10:44:33;;;;;;;;;;;;;;;14.12;92.69;96077.56;5083667;28;19930;-73
2023/04/30 10:47:01;;;;;;;;;;;;;;;14.06;97.43;96080.63;5081168;28;19924;-73
2023/04/30 10:49:27;;;;;;;;;;;;;;;13.96;92.11;96075.22;5079651;28;20379;-73
2023/04/30 10:51:55;;;;;;;;;;;;;;;14.07;87.90;96081.44;5077120;28;19948;-73
2023/04/30 10:54:25;;;;;;;;;;;;;;;13.79;90.57;96073.84;5072599;28;19954;-73
2023/04/30 10:56:52;;;;;;;;;;;;;;;13.82;81.29;96075.38;5084216;28;19955;-73
2023/04/30 10:59:19;;;;;;;;;;;;;;;13.97;85.65;96076.06;5078222;28;20382;-73
2023/04/30 11:01:55;;;;;;;;;;;;;;;14.27;97.77;96068.63;5081968;28;20423;-73
2023/04/30 11:04:21;;;;;;;;;;;;;;;14.24;88.26;96074.09;5072859;28;19940;-73
2023/04/30 11:06:55;;;;;;;;;;;;;;;14.17;78.58;96067.66;5078008;28;20413;-73
2023/04/30 11:09:36;;;;;;;;;;;;;;;14.03;78.05;96075.63;5076966;28;21309;-73
2023/04/30 11:12:04;;;;;;;;;;;;;;;14.10;79.71;96073.44;5083850;28;20015;-73
2023/04/30 11:14:31;;;;;;;;;;;;;;;14.20;86.24;96063.97;5075268;28;19924;-74
2023/04/30 11:16:58;;;;;;;;;;;;;;;13.98;76.98;96069.94;5083499;28;19929;-74
2023/04/30 11:19:27;;;;;;;;;;;;;;;14.21;83.05;96058.69;5084135;28;19924;-74
2023/04/30 11:22:08;;;;;;;;;;;;;;;14.28;90.19;96057.28;5063492;28;19970;-74
2023/04/30 11:24:51;;;;;;;;;;;;;;;14.22;79.40;96062.94;5073102;28;20329;-74
2023/04/30 11:27:19;;;;;;;;;;;;;;;14.23;81.59;96053.34;5073465;28;19969;-74
2023/04/30 11:29:46;;;;;;;;;;;;;;;14.01;79.52;96059.28;5071614;28;19929;-74
2023/04/30 11:32:13;;;;;;;;;;;;;;;14.03;74.85;96060.00;5083859;28;20018;-74
2023/04/30 11:34:40;;;;;;;;;;;;;;;13.95;84.55;96046.72;5072251;28;19931;-73
2023/04/30 11:37:06;;;;;;;;;;;;;;;13.60;79.39;96049.19;5066248;28;19974;-74
2023/04/30 11:39:35;;;;;;;;;;;;;;;13.77;84.28;96059.25;5067105;28;19932;-73
2023/04/30 11:42:03;;;;;;;;;;;;;;;13.61;75.89;96066.47;5071122;28;20461;-74
2023/04/30 11:44:29;;;;;;;;;;;;;;;13.59;74.67;96050.16;5058522;28;20002;-74
2023/04/30 11:46:55;;;;;;;;;;;;;;;13.65;73.13;96047.97;5073705;28;19994;-73
2023/04/30 11:49:21;;;;;;;;;;;;;;;13.72;73.50;96038.78;5070540;28;19933;-73
2023/04/30 11:51:48;;;;;;;;;;;;;;;13.83;73.36;96039.75;5065298;28;19924;-74
2023/04/30 11:54:14;;;;;;;;;;;;;;;13.94;74.75;96042.44;5069207;28;19950;-74
2023/04/30 11:56:45;;;;;;;;;;;;;;;13.94;73.62;96042.44;5064444;28;20345;-74
2023/04/30 11:59:13;;;;;;;;;;;;;;;14.05;72.88;96045.09;5070468;28;20067;-74
2023/04/30 12:01:40;;;;;;;;;;;;;;;14.08;75.68;96044.88;5070022;28;19932;-73
2023/04/30 12:04:07;;;;;;;;;;;;;;;13.97;77.56;96039.59;5069423;28;19929;-74
2023/04/30 12:06:34;;;;;;;;;;;;;;;13.87;74.44;96038.59;5064380;28;19967;-73
2023/04/30 12:09:03;;;;;;;;;;;;;;;13.62;76.76;96042.97;5074503;28;20027;-73
2023/04/30 12:11:30;;;;;;;;;;;;;;;13.62;79.89;96045.56;5065418;28;19931;-73
2023/04/30 12:13:57;;;;;;;;;;;;;;;13.65;78.75;96040.16;5070068;28;19928;-74
2023/04/30 12:16:25;;;;;;;;;;;;;;;13.71;79.73;96047.50;5070230;28;19924;-74
2023/04/30 12:18:51;;;;;;;;;;;;;;;13.54;76.72;96045.28;5073832;28;19959;-74
2023/04/30 12:21:18;;;;;;;;;;;;;;;13.45;78.95;96046.72;5076621;28;20391;-74
2023/04/30 12:23:44;;;;;;;;;;;;;;;13.50;79.84;96036.03;5072639;28;20035;-73
2023/04/30 12:26:11;;;;;;;;;;;;;;;13.62;79.71;96036.94;5072880;28;20015;-74
2023/04/30 12:28:37;;;;;;;;;;;;;;;13.58;81.41;96040.69;5074448;28;19967;-73
2023/04/30 12:31:05;;;;;;;;;;;;;;;13.73;83.23;96042.22;5074696;28;19933;-73
2023/04/30 12:33:33;;;;;;;;;;;;;;;13.93;84.18;96035.56;5070141;28;19975;-74
2023/04/30 12:35:59;;;;;;;;;;;;;;;14.02;76.04;96032.31;5077203;28;19931;-74
2023/04/30 12:38:25;;;;;;;;;;;;;;;14.07;76.11;96031.97;5079613;28;19964;-74
2023/04/30 12:40:52;;;;;;;;;;;;;;;13.98;79.84;96039.50;5076392;28;19928;-74
2023/04/30 12:43:18;;;;;;;;;;;;;;;14.01;75.79;96035.84;5074456;28;20402;-73